Time;durP1;ratioP1;P1;durP2;ratioP2;P2;SDS_P1;SDS_P2;PMS_P1;PMS_P2;Temp;Humidity;BMP_temperature;BMP_pressure;BME280_temperature;BME280_humidity;BME280_pressure;Samples;Min_cycle;Max_cycle;Signal;HPM_P1;HPM_P2
2021/03/20 00:00:17;;;;;;;7.32;5.95;;;3.40;99.90;;;;;;5053516;28;20039;-78
2021/03/20 00:02:43;;;;;;;;;;;3.40;99.90;;;;;;5054073;28;20037;-78
2021/03/20 00:05:10;;;;;;;9.15;5.80;;;3.40;99.90;;;;;;5053002;28;19916;-78
2021/03/20 00:07:37;;;;;;;8.00;5.70;;;3.40;99.90;;;;;;5053540;28;20044;-78
2021/03/20 00:10:07;;;;;;;8.25;5.63;;;3.40;99.90;;;;;;5052028;28;20056;-78
2021/03/20 00:12:33;;;;;;;7.78;5.38;;;3.40;99.90;;;;;;5054782;28;20045;-78
2021/03/20 00:14:59;;;;;;;7.50;5.85;;;3.40;99.90;;;;;;5057124;28;20106;-78
2021/03/20 00:17:25;;;;;;;9.25;6.88;;;3.20;99.90;;;;;;5056826;28;20043;-78
2021/03/20 00:19:51;;;;;;;8.27;6.20;;;3.20;99.90;;;;;;5057021;28;20124;-78
2021/03/20 00:22:17;;;;;;;7.78;5.20;;;3.20;99.90;;;;;;5056419;28;20573;-78
2021/03/20 00:24:43;;;;;;;9.77;5.05;;;3.30;99.90;;;;;;5056668;28;20032;-78
2021/03/20 00:27:09;;;;;;;7.93;5.38;;;3.40;99.90;;;;;;5056865;28;20033;-78
2021/03/20 00:29:35;;;;;;;14.20;8.80;;;3.20;99.90;;;;;;5056647;28;20048;-77
2021/03/20 00:32:01;;;;;;;8.95;6.28;;;3.30;99.90;;;;;;5056734;28;20049;-78
2021/03/20 00:34:26;;;;;;;7.43;6.10;;;3.20;99.90;;;;;;5056245;28;20399;-78
2021/03/20 00:36:52;;;;;;;12.00;7.28;;;3.10;99.90;;;;;;5056539;28;20051;-78
2021/03/20 00:39:18;;;;;;;7.80;6.13;;;3.00;99.90;;;;;;5056991;28;20059;-78
2021/03/20 00:41:44;;;;;;;7.28;5.30;;;3.00;99.90;;;;;;5056660;28;20048;-78
2021/03/20 00:44:10;;;;;;;7.70;5.50;;;3.00;99.90;;;;;;5056461;28;20040;-78
2021/03/20 00:46:36;;;;;;;7.95;5.80;;;3.00;99.90;;;;;;5056547;28;20044;-78
2021/03/20 00:49:03;;;;;;;8.02;6.05;;;3.00;99.90;;;;;;5056879;28;20041;-78
2021/03/20 00:51:29;;;;;;;7.88;5.93;;;3.00;99.90;;;;;;5056670;28;20486;-78
2021/03/20 00:53:54;;;;;;;10.60;6.93;;;2.90;99.90;;;;;;5056638;28;20223;-78
2021/03/20 00:56:20;;;;;;;8.82;6.40;;;3.00;99.90;;;;;;5056712;28;20452;-78
2021/03/20 00:58:46;;;;;;;8.45;6.68;;;3.10;99.90;;;;;;5055929;28;20041;-78
2021/03/20 01:01:18;;;;;;;7.70;6.15;;;3.10;99.90;;;;;;5056536;28;20041;-79
2021/03/20 01:03:45;;;;;;;9.23;6.28;;;3.10;99.90;;;;;;5054963;28;20049;-78
2021/03/20 01:06:19;;;;;;;7.43;5.93;;;3.10;99.90;;;;;;5056157;28;20132;-78
2021/03/20 01:08:45;;;;;;;6.85;5.55;;;3.10;99.90;;;;;;5056125;28;20552;-78
2021/03/20 01:11:12;;;;;;;7.60;5.82;;;3.00;99.90;;;;;;5055026;28;20029;-78
2021/03/20 01:13:38;;;;;;;8.48;5.88;;;3.00;99.90;;;;;;5055777;28;20453;-78
2021/03/20 01:16:05;;;;;;;8.32;5.75;;;3.00;99.90;;;;;;5056239;28;20207;-78
2021/03/20 01:18:31;;;;;;;9.68;6.10;;;3.00;99.90;;;;;;5055994;28;20045;-78
2021/03/20 01:20:56;;;;;;;7.40;5.90;;;3.10;99.90;;;;;;5056087;28;20044;-78
2021/03/20 01:23:23;;;;;;;8.98;5.80;;;3.10;99.90;;;;;;5054968;28;20041;-78
2021/03/20 01:25:49;;;;;;;10.05;6.75;;;3.10;99.90;;;;;;5055797;28;20037;-78
2021/03/20 01:28:15;;;;;;;7.78;6.00;;;3.10;99.90;;;;;;5055661;28;20055;-78
2021/03/20 01:30:43;;;;;;;8.35;6.13;;;3.10;99.90;;;;;;5055993;28;20033;-78
2021/03/20 01:33:09;;;;;;;9.05;5.50;;;3.20;99.90;;;;;;5055478;28;20048;-78
2021/03/20 01:35:36;;;;;;;7.40;5.97;;;3.30;99.90;;;;;;5054241;28;20506;-78
2021/03/20 01:38:03;;;;;;;8.15;5.50;;;3.30;99.90;;;;;;5055511;28;20037;-78
2021/03/20 01:40:59;;;;;;;6.30;5.22;;;3.20;99.90;;;;;;5055201;28;20128;-79
2021/03/20 01:43:28;;;;;;;8.30;5.65;;;3.20;99.90;;;;;;5052245;28;20107;-78
2021/03/20 01:46:14;;;;;;;7.72;5.35;;;3.20;99.90;;;;;;5055197;28;20048;-78
2021/03/20 01:48:40;;;;;;;9.45;6.07;;;3.30;99.90;;;;;;5055201;28;20114;-78
2021/03/20 01:51:11;;;;;;;6.93;5.88;;;3.30;99.90;;;;;;5054949;28;20422;-78
2021/03/20 01:53:42;;;;;;;15.60;8.82;;;3.20;99.90;;;;;;5055228;28;20063;-78
2021/03/20 01:56:14;;;;;;;18.48;10.30;;;3.10;99.90;;;;;;5055253;28;20064;-78
2021/03/20 01:58:42;;;;;;;11.68;8.07;;;2.90;99.90;;;;;;5054741;28;20087;-78
2021/03/20 02:01:10;;;;;;;8.82;5.78;;;2.80;99.90;;;;;;5054792;28;20041;-78
2021/03/20 02:03:38;;;;;;;8.27;6.15;;;2.70;99.90;;;;;;5054776;28;20032;-78
2021/03/20 02:06:05;;;;;;;7.72;5.65;;;2.60;99.90;;;;;;5054998;28;20102;-78
2021/03/20 02:08:31;;;;;;;6.90;4.97;;;2.50;99.90;;;;;;5055062;28;20036;-78
2021/03/20 02:11:06;;;;;;;6.47;5.75;;;2.40;99.90;;;;;;5054852;28;20047;-78
2021/03/20 02:13:39;;;;;;;9.45;6.35;;;2.30;99.90;;;;;;5054716;28;20049;-78
2021/03/20 02:16:18;;;;;;;9.55;5.95;;;2.40;99.90;;;;;;5054918;28;20089;-78
2021/03/20 02:19:14;;;;;;;7.22;6.13;;;2.50;99.90;;;;;;5054323;28;20036;-78
2021/03/20 02:22:01;;;;;;;9.05;6.55;;;2.50;99.90;;;;;;5054337;28;20059;-78
2021/03/20 02:24:54;;;;;;;6.90;5.53;;;2.50;99.90;;;;;;5054502;28;20498;-78
2021/03/20 02:27:57;;;;;;;7.18;5.35;;;2.40;99.90;;;;;;5054047;28;20036;-78
2021/03/20 02:30:29;;;;;;;11.55;6.53;;;2.40;99.90;;;;;;5054029;28;20033;-78
2021/03/20 02:33:10;;;;;;;9.95;7.43;;;2.50;99.90;;;;;;5054178;28;20053;-78
2021/03/20 02:36:03;;;;;;;9.75;7.13;;;2.40;99.90;;;;;;5053875;28;20088;-78
2021/03/20 02:38:52;;;;;;;17.00;12.02;;;2.30;99.90;;;;;;5053934;28;20045;-78
2021/03/20 02:41:50;;;;;;;9.27;6.22;;;2.20;99.90;;;;;;5054519;28;20041;-78
2021/03/20 02:44:38;;;;;;;9.63;7.30;;;2.20;99.90;;;;;;5054239;28;20613;-78
2021/03/20 02:47:08;;;;;;;9.35;6.40;;;2.10;99.90;;;;;;5054457;28;20472;-78
2021/03/20 02:49:42;;;;;;;8.32;6.70;;;1.90;99.90;;;;;;5054685;28;20111;-78
2021/03/20 02:52:19;;;;;;;7.93;6.28;;;1.90;99.90;;;;;;5054291;28;20127;-78
2021/03/20 02:54:48;;;;;;;8.07;6.70;;;2.00;99.90;;;;;;5054588;28;20153;-78
2021/03/20 02:57:41;;;;;;;10.30;7.13;;;2.00;99.90;;;;;;5054156;28;20037;-78
2021/03/20 03:00:52;;;;;;;8.20;6.63;;;1.90;99.90;;;;;;5054258;28;20036;-78
2021/03/20 03:03:20;;;;;;;9.60;6.55;;;1.80;99.90;;;;;;5051381;28;20037;-78
2021/03/20 03:06:24;;;;;;;8.60;6.90;;;1.90;99.90;;;;;;5054385;28;20114;-78
2021/03/20 03:08:59;;;;;;;9.50;6.38;;;1.70;99.90;;;;;;5054377;28;20033;-78
2021/03/20 03:11:33;;;;;;;8.73;7.05;;;1.70;99.90;;;;;;5053987;28;20037;-78
2021/03/20 03:14:11;;;;;;;11.80;8.23;;;1.70;99.90;;;;;;5054275;28;20045;-78
2021/03/20 03:16:45;;;;;;;10.63;8.43;;;1.60;99.90;;;;;;5054381;28;20029;-78
2021/03/20 03:19:21;;;;;;;10.68;7.68;;;1.50;99.90;;;;;;5054390;28;20033;-78
2021/03/20 03:21:52;;;;;;;11.25;8.10;;;1.70;99.90;;;;;;5054119;28;20139;-78
2021/03/20 03:24:22;;;;;;;10.95;7.97;;;1.70;99.90;;;;;;5054340;28;20086;-78
2021/03/20 03:27:11;;;;;;;12.43;8.50;;;1.70;99.90;;;;;;5052486;28;20053;-78
2021/03/20 03:29:37;;;;;;;11.13;7.65;;;1.70;99.90;;;;;;5053527;28;20043;-78
2021/03/20 03:32:23;;;;;;;10.27;7.97;;;1.70;99.90;;;;;;5053878;28;20396;-78
2021/03/20 03:35:05;;;;;;;12.82;8.77;;;1.50;99.90;;;;;;5053244;28;20037;-78
2021/03/20 03:37:41;;;;;;;11.40;7.97;;;1.50;99.90;;;;;;5053890;28;20071;-78
2021/03/20 03:40:14;;;;;;;15.45;8.25;;;1.50;99.90;;;;;;5053853;28;20149;-78
2021/03/20 03:42:40;;;;;;;9.77;7.22;;;1.40;99.90;;;;;;5053467;28;20053;-78
2021/03/20 03:45:11;;;;;;;12.27;7.55;;;1.40;99.90;;;;;;5053712;28;20033;-78
2021/03/20 03:47:37;;;;;;;11.25;7.60;;;1.20;99.90;;;;;;5055088;28;20124;-78
2021/03/20 03:50:11;;;;;;;11.45;8.25;;;1.00;99.90;;;;;;5057592;28;20036;-78
2021/03/20 03:52:37;;;;;;;12.43;8.55;;;1.00;99.90;;;;;;5057540;28;20040;-78
2021/03/20 03:55:04;;;;;;;10.40;7.72;;;0.90;99.90;;;;;;5057205;28;20044;-78
2021/03/20 03:57:42;;;;;;;15.38;7.18;;;0.80;99.90;;;;;;5057231;28;20109;-79
2021/03/20 04:00:25;;;;;;;9.20;7.25;;;0.70;99.90;;;;;;5057191;28;20386;-78
2021/03/20 04:03:16;;;;;;;9.32;7.18;;;0.80;99.90;;;;;;5057176;28;20041;-78
2021/03/20 04:05:52;;;;;;;10.52;7.90;;;0.70;99.90;;;;;;5057152;28;20090;-78
2021/03/20 04:08:30;;;;;;;13.43;8.23;;;0.80;99.90;;;;;;5057312;28;20514;-78
2021/03/20 04:11:21;;;;;;;11.48;8.10;;;0.90;99.90;;;;;;5056534;28;20040;-78
2021/03/20 04:14:16;;;;;;;14.60;8.05;;;0.80;99.90;;;;;;5057021;28;20045;-78
2021/03/20 04:17:06;;;;;;;9.93;7.68;;;0.80;99.90;;;;;;5056805;28;20043;-78
2021/03/20 04:19:52;;;;;;;9.83;7.50;;;0.70;99.90;;;;;;5057171;28;20036;-78
2021/03/20 04:22:54;;;;;;;12.02;7.88;;;0.70;99.90;;;;;;5056847;28;20043;-78
2021/03/20 04:25:48;;;;;;;14.25;8.13;;;0.60;99.90;;;;;;5057003;28;20060;-78
2021/03/20 04:28:22;;;;;;;10.80;7.38;;;0.50;99.90;;;;;;5056762;28;20511;-79
2021/03/20 04:31:00;;;;;;;12.80;8.43;;;0.50;99.90;;;;;;5056627;28;20037;-79
2021/03/20 04:33:33;;;;;;;10.98;8.00;;;0.50;99.90;;;;;;5056373;28;20052;-78
2021/03/20 04:36:21;;;;;;;12.65;9.70;;;0.60;99.90;;;;;;5056391;28;20487;-77
2021/03/20 04:38:47;;;;;;;9.00;6.53;;;0.70;99.90;;;;;;5056507;28;20068;-78
2021/03/20 04:41:16;;;;;;;10.70;7.55;;;1.00;99.90;;;;;;5054894;28;20041;-77
2021/03/20 04:43:43;;;;;;;10.32;7.47;;;1.00;99.90;;;;;;5056195;28;20517;-79
2021/03/20 04:46:24;;;;;;;14.18;8.13;;;1.20;99.90;;;;;;5056250;28;20033;-78
2021/03/20 04:49:08;;;;;;;;;;;1.20;99.90;;;;;;5057018;28;20048;-78
2021/03/20 04:52:15;;;;;;;11.00;7.80;;;1.30;99.90;;;;;;5056336;28;20351;-78
2021/03/20 04:54:41;;;;;;;11.70;8.43;;;1.30;99.90;;;;;;5056402;28;20029;-78
2021/03/20 04:57:29;;;;;;;10.55;7.82;;;1.40;99.90;;;;;;5056267;28;20063;-78
2021/03/20 05:00:05;;;;;;;11.85;7.63;;;1.40;99.90;;;;;;5054665;28;20102;-78
2021/03/20 05:02:43;;;;;;;9.55;7.85;;;1.30;99.90;;;;;;5055965;28;20037;-78
2021/03/20 05:05:29;;;;;;;12.10;8.73;;;1.20;99.90;;;;;;5055946;28;20376;-78
2021/03/20 05:08:03;;;;;;;12.90;9.40;;;1.30;99.90;;;;;;5052055;28;20060;-78
2021/03/20 05:10:52;;;;;;;18.15;10.20;;;1.50;99.90;;;;;;5055868;28;20036;-78
2021/03/20 05:13:40;;;;;;;13.95;10.07;;;1.60;99.90;;;;;;5055573;28;20479;-78
2021/03/20 05:16:38;;;;;;;16.55;11.02;;;1.60;99.90;;;;;;5056054;28;20061;-78
2021/03/20 05:19:06;;;;;;;18.55;11.18;;;1.60;99.90;;;;;;5055676;28;20044;-78
2021/03/20 05:21:38;;;;;;;15.38;11.15;;;1.50;99.90;;;;;;5055391;28;20033;-78
2021/03/20 05:24:05;;;;;;;14.90;11.30;;;1.60;99.90;;;;;;5055918;28;20120;-78
2021/03/20 05:26:33;;;;;;;15.00;11.32;;;1.60;99.90;;;;;;5055817;28;20042;-78
2021/03/20 05:28:59;;;;;;;15.55;10.82;;;1.50;99.90;;;;;;5055655;28;20079;-78
2021/03/20 05:31:28;;;;;;;13.90;11.05;;;1.60;99.90;;;;;;5055391;28;20041;-78
2021/03/20 05:33:54;;;;;;;15.27;10.77;;;1.50;99.90;;;;;;5055461;28;20090;-78
2021/03/20 05:36:20;;;;;;;16.25;11.32;;;1.50;99.90;;;;;;5055597;28;20045;-78
2021/03/20 05:38:47;;;;;;;15.13;11.35;;;1.40;99.90;;;;;;5055905;28;20044;-78
2021/03/20 05:41:22;;;;;;;16.98;12.48;;;1.40;99.90;;;;;;5055562;28;20037;-78
2021/03/20 05:44:17;;;;;;;15.77;10.52;;;1.30;99.90;;;;;;5055251;28;20036;-78
2021/03/20 05:46:49;;;;;;;13.48;10.40;;;1.00;99.90;;;;;;5046043;28;20075;-78
2021/03/20 05:49:18;;;;;;;13.57;10.38;;;0.80;99.90;;;;;;5055744;28;20076;-78
2021/03/20 05:51:53;;;;;;;14.88;10.25;;;0.70;99.90;;;;;;5055474;28;20037;-78
2021/03/20 05:54:48;;;;;;;13.65;9.82;;;0.80;99.90;;;;;;5055247;28;20037;-78
2021/03/20 05:57:35;;;;;;;12.88;9.63;;;0.90;99.90;;;;;;5054870;28;20364;-78
2021/03/20 06:00:15;;;;;;;13.90;9.95;;;1.00;99.90;;;;;;5055445;28;20047;-78
2021/03/20 06:03:00;;;;;;;16.70;10.60;;;1.10;99.90;;;;;;5055509;28;20072;-78
2021/03/20 06:05:31;;;;;;;17.25;11.63;;;1.30;99.90;;;;;;5055427;28;20068;-78
2021/03/20 06:08:26;;;;;;;13.05;10.18;;;1.30;99.90;;;;;;5055368;28;20051;-78
2021/03/20 06:10:57;;;;;;;13.38;9.80;;;1.50;99.90;;;;;;5054369;28;20037;-78
2021/03/20 06:13:29;;;;;;;;;;;1.40;99.90;;;;;;5055330;28;20124;-78
2021/03/20 06:16:00;;;;;;;15.57;10.65;;;1.50;99.90;;;;;;5054877;28;19915;-78
2021/03/20 06:19:16;;;;;;;16.33;11.38;;;1.40;99.90;;;;;;5055145;28;20036;-78
2021/03/20 06:22:04;;;;;;;14.30;10.63;;;1.40;99.90;;;;;;5045103;28;20114;-78
2021/03/20 06:24:42;;;;;;;12.68;10.00;;;1.30;99.90;;;;;;5054776;28;20068;-78
2021/03/20 06:27:14;;;;;;;12.48;9.48;;;1.30;99.90;;;;;;5055024;28;20032;-78
2021/03/20 06:29:52;;;;;;;15.80;10.25;;;1.40;99.90;;;;;;5054260;28;20044;-78
2021/03/20 06:32:27;;;;;;;12.02;9.85;;;1.40;99.90;;;;;;5054787;28;20044;-78
2021/03/20 06:35:04;;;;;;;12.15;9.32;;;1.40;99.90;;;;;;5054503;28;20134;-78
2021/03/20 06:37:36;;;;;;;15.25;9.95;;;1.50;99.90;;;;;;5054812;28;20040;-78
2021/03/20 06:40:17;;;;;;;12.43;9.23;;;1.60;99.90;;;;;;5054456;28;20037;-79
2021/03/20 06:42:44;;;;;;;12.50;8.98;;;1.60;99.90;;;;;;5054587;28;20048;-78
2021/03/20 06:45:24;;;;;;;10.68;8.55;;;1.70;99.90;;;;;;5054601;28;20147;-78
2021/03/20 06:47:54;;;;;;;12.88;9.10;;;1.80;99.90;;;;;;5054443;28;20114;-78
2021/03/20 06:50:20;;;;;;;10.77;8.40;;;1.90;99.90;;;;;;5054616;28;20036;-78
2021/03/20 06:53:24;;;;;;;11.63;8.27;;;2.00;99.90;;;;;;5054278;28;20430;-78
2021/03/20 06:55:51;;;;;;;12.10;9.18;;;1.90;99.90;;;;;;5012319;28;20412;-77
2021/03/20 06:58:17;;;;;;;15.13;10.70;;;2.10;99.90;;;;;;5053896;28;20047;-78
2021/03/20 07:00:43;;;;;;;14.68;10.77;;;2.00;99.90;;;;;;5053216;28;20032;-78
2021/03/20 07:03:46;;;;;;;14.77;10.05;;;2.00;99.90;;;;;;5054171;28;20045;-78
2021/03/20 07:06:18;;;;;;;12.48;9.35;;;2.10;99.90;;;;;;5054472;28;20041;-78
2021/03/20 07:08:54;;;;;;;14.35;11.23;;;2.30;99.90;;;;;;5054358;28;20090;-78
2021/03/20 07:11:36;;;;;;;14.27;11.15;;;2.10;99.90;;;;;;5054144;28;20041;-78
2021/03/20 07:14:09;;;;;;;13.70;10.82;;;2.00;99.90;;;;;;5053626;28;20049;-78
2021/03/20 07:16:58;;;;;;;15.98;11.57;;;1.90;99.90;;;;;;5054324;28;20116;-78
2021/03/20 07:19:25;;;;;;;13.80;11.07;;;1.80;99.90;;;;;;5052186;28;20029;-78
2021/03/20 07:21:57;;;;;;;14.45;9.98;;;2.00;99.90;;;;;;5054556;28;20135;-78
2021/03/20 07:24:43;;;;;;;13.13;9.48;;;2.10;99.90;;;;;;5057016;28;20403;-78
2021/03/20 07:27:15;;;;;;;13.82;10.88;;;2.30;99.90;;;;;;5055738;28;20110;-78
2021/03/20 07:29:51;;;;;;;29.88;18.92;;;2.50;99.90;;;;;;5055935;28;20116;-78
2021/03/20 07:32:17;;;;;;;22.17;13.70;;;2.60;99.90;;;;;;5057403;28;20052;-77
2021/03/20 07:34:44;;;;;;;16.70;11.27;;;2.70;99.90;;;;;;5057259;28;20090;-77
2021/03/20 07:37:19;;;;;;;11.73;8.77;;;2.80;99.90;;;;;;5057213;28;20487;-76
2021/03/20 07:39:57;;;;;;;12.60;9.13;;;2.80;99.90;;;;;;5057098;28;20037;-77
2021/03/20 07:42:33;;;;;;;10.40;8.27;;;2.80;99.90;;;;;;5056444;28;20047;-78
2021/03/20 07:45:16;;;;;;;11.75;8.57;;;3.00;99.90;;;;;;5075638;28;20135;-77
2021/03/20 07:47:43;;;;;;;9.63;6.97;;;3.10;99.90;;;;;;5075814;28;20044;-77
2021/03/20 07:50:18;;;;;;;10.73;8.10;;;3.30;99.90;;;;;;5075534;28;20556;-76
2021/03/20 07:52:46;;;;;;;62.47;42.58;;;3.30;99.90;;;;;;5075255;28;20041;-77
2021/03/20 07:55:21;;;;;;;8.95;7.40;;;3.50;99.90;;;;;;5075735;28;20040;-77
2021/03/20 07:57:54;;;;;;;8.60;7.00;;;3.60;99.90;;;;;;5075273;28;20068;-77
2021/03/20 08:00:29;;;;;;;9.00;6.97;;;3.60;99.90;;;;;;5076366;28;20052;-77
2021/03/20 08:03:04;;;;;;;9.15;7.28;;;3.60;99.90;;;;;;5077179;28;20078;-76
2021/03/20 08:05:34;;;;;;;9.80;7.80;;;3.60;99.90;;;;;;5077044;28;20467;-77
2021/03/20 08:08:15;;;;;;;8.83;6.77;;;3.70;99.90;;;;;;5077399;28;20122;-76
2021/03/20 08:10:46;;;;;;;16.70;9.68;;;3.60;99.90;;;;;;5071323;28;20634;-76
2021/03/20 08:13:14;;;;;;;12.40;8.25;;;3.60;99.90;;;;;;5056915;28;20049;-76
2021/03/20 08:15:53;;;;;;;8.93;6.93;;;3.70;99.90;;;;;;5056892;28;20482;-77
2021/03/20 08:18:28;;;;;;;8.45;6.97;;;3.70;99.90;;;;;;5056931;28;20043;-77
2021/03/20 08:21:07;;;;;;;8.35;6.88;;;3.70;99.90;;;;;;5057018;28;20083;-77
2021/03/20 08:23:51;;;;;;;11.15;6.90;;;3.70;99.90;;;;;;5056855;28;20041;-77
2021/03/20 08:26:43;;;;;;;10.35;7.13;;;3.80;99.90;;;;;;5053754;28;20033;-77
2021/03/20 08:29:54;;;;;;;9.77;6.97;;;3.80;99.90;;;;;;5055361;28;20056;-78
2021/03/20 08:32:45;;;;;;;19.15;11.35;;;3.90;99.90;;;;;;5055035;28;20045;-78
2021/03/20 08:35:48;;;;;;;9.82;7.53;;;4.00;99.90;;;;;;5055307;28;20061;-77
2021/03/20 08:38:33;;;;;;;23.25;12.10;;;3.90;99.90;;;;;;5056376;28;20059;-78
2021/03/20 08:41:12;;;;;;;18.25;10.48;;;4.00;99.90;;;;;;5055804;28;20040;-77
2021/03/20 08:44:16;;;;;;;12.50;8.68;;;4.10;99.90;;;;;;5055865;28;20041;-77
2021/03/20 08:46:54;;;;;;;10.93;8.45;;;4.20;99.90;;;;;;5049190;28;20120;-78
2021/03/20 08:49:27;;;;;;;18.80;11.68;;;4.10;99.90;;;;;;5055906;28;20395;-77
2021/03/20 08:52:11;;;;;;;9.95;7.18;;;4.20;99.90;;;;;;5055016;28;20131;-77
2021/03/20 08:54:42;;;;;;;10.57;7.43;;;4.20;99.90;;;;;;5055694;28;20041;-77
2021/03/20 08:57:13;;;;;;;12.07;7.55;;;4.10;99.90;;;;;;5055299;28;20120;-78
2021/03/20 08:59:50;;;;;;;9.43;6.80;;;4.00;99.90;;;;;;5056019;28;20040;-77
2021/03/20 09:02:25;;;;;;;12.35;8.43;;;4.00;99.90;;;;;;5056262;28;20048;-78
2021/03/20 09:05:08;;;;;;;17.50;10.10;;;3.90;99.90;;;;;;5056726;28;20033;-78
2021/03/20 09:07:48;;;;;;;8.30;6.65;;;4.00;99.90;;;;;;5056341;28;20037;-78
2021/03/20 09:10:20;;;;;;;11.07;7.72;;;3.80;99.90;;;;;;5056259;28;20037;-77
2021/03/20 09:12:57;;;;;;;8.57;6.97;;;3.80;99.90;;;;;;5056420;28;20041;-78
2021/03/20 09:15:27;;;;;;;9.60;7.07;;;3.80;99.90;;;;;;5056584;28;20044;-77
2021/03/20 09:17:54;;;;;;;10.23;7.15;;;3.70;99.90;;;;;;5056234;28;20504;-77
2021/03/20 09:20:38;;;;;;;37.65;21.27;;;3.80;99.90;;;;;;5056143;28;20040;-77
2021/03/20 09:23:05;;;;;;;12.30;9.40;;;3.70;99.90;;;;;;5056078;28;20082;-78
2021/03/20 09:25:44;;;;;;;49.92;28.42;;;3.70;99.90;;;;;;5054949;28;20480;-77
2021/03/20 09:28:13;;;;;;;13.45;9.98;;;3.80;99.90;;;;;;5054791;28;20048;-77
2021/03/20 09:30:43;;;;;;;8.32;7.13;;;3.80;99.90;;;;;;5055481;28;20043;-76
2021/03/20 09:33:33;;;;;;;7.43;6.30;;;4.10;99.90;;;;;;5056042;28;20131;-77
2021/03/20 09:36:22;;;;;;;9.88;6.80;;;4.60;94.70;;;;;;5055517;28;20535;-77
2021/03/20 09:38:54;;;;;;;9.18;7.35;;;4.80;97.70;;;;;;5056747;28;20083;-77
2021/03/20 09:41:19;;;;;;;9.20;7.32;;;4.30;99.90;;;;;;5055789;28;20032;-77
2021/03/20 09:43:50;;;;;;;8.82;7.10;;;4.20;99.90;;;;;;5055228;28;20048;-77
2021/03/20 09:46:47;;;;;;;8.70;7.30;;;4.30;99.90;;;;;;5054834;28;20041;-77
2021/03/20 09:49:14;;;;;;;9.77;7.40;;;4.30;99.90;;;;;;5054472;28;20041;-77
2021/03/20 09:51:53;;;;;;;10.52;8.27;;;4.30;99.90;;;;;;5055419;28;20036;-77
2021/03/20 09:54:25;;;;;;;12.02;8.18;;;4.50;99.90;;;;;;5055275;28;20033;-77
2021/03/20 09:57:07;;;;;;;11.88;8.27;;;4.60;99.90;;;;;;5055094;28;20040;-77
2021/03/20 09:59:34;;;;;;;10.00;7.35;;;4.70;99.90;;;;;;5055368;28;20045;-76
2021/03/20 10:02:10;;;;;;;9.88;7.40;;;4.80;99.90;;;;;;5055684;28;20041;-77
2021/03/20 10:04:54;;;;;;;11.45;8.65;;;4.80;99.90;;;;;;5055223;28;20041;-77
2021/03/20 10:07:24;;;;;;;8.38;6.60;;;4.70;99.90;;;;;;5055079;28;20127;-76
2021/03/20 10:10:10;;;;;;;11.52;7.63;;;4.70;99.90;;;;;;5055313;28;20107;-76
2021/03/20 10:12:43;;;;;;;12.05;8.32;;;4.70;99.90;;;;;;5054886;28;20404;-77
2021/03/20 10:17:58;;;;;;;9.70;7.75;;;4.50;99.90;;;;;;5054824;28;20020;-77
2021/03/20 10:20:35;;;;;;;13.18;9.15;;;4.50;99.90;;;;;;5055357;28;20491;-77
2021/03/20 10:23:09;;;;;;;10.07;7.38;;;4.50;99.90;;;;;;5054752;28;20040;-76
2021/03/20 10:25:35;;;;;;;10.88;8.43;;;4.50;99.90;;;;;;5054972;28;20039;-78
2021/03/20 10:28:04;;;;;;;10.93;8.32;;;4.60;99.90;;;;;;5055169;28;20041;-77
2021/03/20 10:30:33;;;;;;;11.05;8.48;;;4.90;99.90;;;;;;5054790;28;20055;-77
2021/03/20 10:33:12;;;;;;;11.02;8.98;;;4.90;99.90;;;;;;5054520;28;20071;-78
2021/03/20 10:35:39;;;;;;;12.55;9.23;;;4.90;99.90;;;;;;5054580;28;20071;-77
2021/03/20 10:38:26;;;;;;;35.38;21.58;;;4.90;99.90;;;;;;5054717;28;20102;-77
2021/03/20 10:41:07;;;;;;;12.07;8.48;;;5.10;99.90;;;;;;5054562;28;20113;-77
2021/03/20 10:43:44;;;;;;;11.40;9.35;;;5.20;99.90;;;;;;5054912;28;20044;-77
2021/03/20 10:46:24;;;;;;;12.13;9.02;;;4.90;99.90;;;;;;5053975;28;20037;-78
2021/03/20 10:48:53;;;;;;;9.88;8.32;;;5.00;99.90;;;;;;5054934;28;20037;-77
2021/03/20 10:51:20;;;;;;;9.32;8.07;;;4.90;99.90;;;;;;5054257;28;20044;-78
2021/03/20 10:53:55;;;;;;;11.27;8.75;;;4.90;99.90;;;;;;5054530;28;20053;-75
2021/03/20 10:56:31;;;;;;;13.25;8.68;;;5.10;99.90;;;;;;5054014;28;20098;-77
2021/03/20 10:58:59;;;;;;;10.30;8.60;;;5.10;99.90;;;;;;5054416;28;20037;-77
2021/03/20 11:01:33;;;;;;;9.93;8.57;;;5.00;99.90;;;;;;5054210;28;20041;-77
2021/03/20 11:03:59;;;;;;;12.43;8.95;;;5.10;99.90;;;;;;5054346;28;20043;-77
2021/03/20 11:06:26;;;;;;;10.27;8.05;;;5.10;99.90;;;;;;5054149;28;20162;-77
2021/03/20 11:09:21;;;;;;;8.98;7.93;;;5.20;99.90;;;;;;5054480;28;20032;-78
2021/03/20 11:11:47;;;;;;;12.25;8.75;;;5.10;99.90;;;;;;5053599;28;20033;-77
2021/03/20 11:14:20;;;;;;;10.20;8.35;;;5.20;99.90;;;;;;5054179;28;20032;-77
2021/03/20 11:17:01;;;;;;;9.80;8.07;;;5.10;99.90;;;;;;5054452;28;20102;-78
2021/03/20 11:19:36;;;;;;;9.02;7.82;;;5.10;99.90;;;;;;5054202;28;20071;-77
2021/03/20 11:22:24;;;;;;;7.72;6.68;;;5.40;98.10;;;;;;5053982;28;20039;-75
2021/03/20 11:24:59;;;;;;;9.25;7.25;;;5.60;95.70;;;;;;5054365;28;20511;-76
2021/03/20 11:27:34;;;;;;;9.50;6.95;;;5.80;95.00;;;;;;5053900;28;20041;-76
2021/03/20 11:30:14;;;;;;;11.00;8.98;;;6.00;92.70;;;;;;5053311;28;20090;-77
2021/03/20 11:32:44;;;;;;;7.90;6.80;;;6.00;92.60;;;;;;5053811;28;20095;-76
2021/03/20 11:35:39;;;;;;;10.82;8.10;;;6.10;93.90;;;;;;5054008;28;20148;-78
2021/03/20 11:38:05;;;;;;;8.85;6.85;;;6.00;93.80;;;;;;5054150;28;20049;-75
2021/03/20 11:40:41;;;;;;;9.27;6.93;;;6.20;93.40;;;;;;5054423;28;20051;-76
2021/03/20 11:43:20;;;;;;;7.82;6.45;;;6.30;90.30;;;;;;5053869;28;20032;-77
2021/03/20 11:45:47;;;;;;;8.70;7.13;;;6.20;90.50;;;;;;5054025;28;20087;-76
2021/03/20 11:48:33;;;;;;;12.38;7.20;;;6.10;91.50;;;;;;5053998;28;20048;-75
2021/03/20 11:51:01;;;;;;;7.82;6.60;;;6.30;91.70;;;;;;5053693;28;20049;-77
2021/03/20 11:53:27;;;;;;;8.43;6.75;;;6.40;91.60;;;;;;5053089;28;20041;-77
2021/03/20 11:55:55;;;;;;;8.32;7.18;;;6.70;91.60;;;;;;5052523;28;20475;-76
2021/03/20 11:58:31;;;;;;;9.25;6.63;;;6.70;88.90;;;;;;5054068;28;20044;-77
2021/03/20 12:00:59;;;;;;;10.05;8.15;;;6.80;90.10;;;;;;5054316;28;20574;-77
2021/03/20 12:03:38;;;;;;;10.27;8.15;;;6.80;90.20;;;;;;5054150;28;20044;-76
2021/03/20 12:06:19;;;;;;;8.80;6.25;;;6.80;88.40;;;;;;5054124;28;20041;-77
2021/03/20 12:08:56;;;;;;;8.05;7.13;;;6.90;83.10;;;;;;5054318;28;20039;-77
2021/03/20 12:11:42;;;;;;;11.65;8.25;;;6.90;85.20;;;;;;5057790;28;20099;-77
2021/03/20 12:14:33;;;;;;;12.10;7.85;;;6.70;91.00;;;;;;5057644;28;20041;-76
2021/03/20 12:17:25;;;;;;;10.05;8.18;;;6.30;92.80;;;;;;5057382;28;20483;-77
2021/03/20 12:19:54;;;;;;;11.18;7.85;;;6.40;91.90;;;;;;5057240;28;20041;-77
2021/03/20 12:22:47;;;;;;;9.02;7.38;;;6.50;90.90;;;;;;5057244;28;20112;-77
2021/03/20 12:25:35;;;;;;;8.27;6.75;;;6.40;91.00;;;;;;5056909;28;20503;-76
2021/03/20 12:28:20;;;;;;;8.10;6.68;;;6.40;86.40;;;;;;5057369;28;20061;-76
2021/03/20 12:30:59;;;;;;;8.75;7.20;;;6.60;88.40;;;;;;5057255;28;20151;-76
2021/03/20 12:33:27;;;;;;;10.60;8.57;;;6.60;90.40;;;;;;5057326;28;20045;-76
2021/03/20 12:35:53;;;;;;;12.85;9.32;;;6.90;91.40;;;;;;5055852;28;20122;-76
2021/03/20 12:38:28;;;;;;;10.63;8.80;;;7.00;92.10;;;;;;5056840;28;20041;-76
2021/03/20 12:41:02;;;;;;;8.98;6.88;;;7.00;91.20;;;;;;5056230;28;20037;-76
2021/03/20 12:43:37;;;;;;;8.25;6.35;;;7.00;87.40;;;;;;5055527;28;20043;-76
2021/03/20 12:46:10;;;;;;;8.07;6.30;;;6.90;80.70;;;;;;5056418;28;20151;-76
2021/03/20 12:48:41;;;;;;;9.00;7.18;;;6.90;84.80;;;;;;5056460;28;20086;-76
2021/03/20 12:51:16;;;;;;;8.52;7.63;;;6.80;83.00;;;;;;5055563;28;20040;-77
2021/03/20 12:53:42;;;;;;;8.43;6.75;;;6.60;87.70;;;;;;5055448;28;20079;-77
2021/03/20 12:56:08;;;;;;;8.45;6.40;;;6.70;86.10;;;;;;5055653;28;20068;-76
2021/03/20 12:58:34;;;;;;;9.98;6.60;;;6.70;85.20;;;;;;5054475;28;20037;-76
2021/03/20 13:01:01;;;;;;;8.52;6.38;;;6.80;85.40;;;;;;5054846;28;20075;-77
2021/03/20 13:03:31;;;;;;;6.28;5.30;;;6.70;84.90;;;;;;5056085;28;20059;-77
2021/03/20 13:05:57;;;;;;;6.40;4.85;;;6.80;79.30;;;;;;5055172;28;20148;-77
2021/03/20 13:08:22;;;;;;;6.85;5.10;;;6.80;80.20;;;;;;5054197;28;20124;-77
2021/03/20 13:10:48;;;;;;;7.25;5.22;;;6.90;78.40;;;;;;5054520;28;20510;-76
2021/03/20 13:13:14;;;;;;;7.65;5.15;;;6.90;77.60;;;;;;5055284;28;20044;-76
2021/03/20 13:15:40;;;;;;;5.63;4.90;;;6.90;77.10;;;;;;5054298;28;20537;-78
2021/03/20 13:18:06;;;;;;;5.07;4.47;;;7.10;74.40;;;;;;5055252;28;20075;-77
2021/03/20 13:20:32;;;;;;;6.50;5.30;;;7.10;73.80;;;;;;5054678;28;20098;-76
2021/03/20 13:22:58;;;;;;;4.88;3.65;;;7.30;72.20;;;;;;5053087;28;20037;-78
2021/03/20 13:25:28;;;;;;;4.05;3.40;;;7.50;63.80;;;;;;5054671;28;20040;-78
2021/03/20 13:27:54;;;;;;;4.00;3.37;;;7.80;65.30;;;;;;5055843;28;20179;-77
2021/03/20 13:30:26;;;;;;;5.50;3.58;;;7.80;61.00;;;;;;5055476;28;20282;-77
2021/03/20 13:32:56;;;;;;;5.22;3.72;;;7.60;60.70;;;;;;5054415;28;20431;-77
2021/03/20 13:35:24;;;;;;;4.63;4.03;;;7.70;60.70;;;;;;5055374;28;20045;-77